createdAt,value
2017-05-06T00:02:25.025Z,42.13
2017-05-06T00:04:54.061Z,43.58
2017-05-06T00:07:23.121Z,45.05
2017-05-06T00:09:52.165Z,46.18
2017-05-06T00:12:21.956Z,47.78
2017-05-06T00:14:51.642Z,45.57
2017-05-06T00:17:20.673Z,49.08
2017-05-06T00:19:50.562Z,48.90
2017-05-06T00:22:19.606Z,49.35
2017-05-06T00:24:48.657Z,42.50
2017-05-06T00:27:17.769Z,49.05
2017-05-06T00:29:46.810Z,46.47
2017-05-06T00:32:15.844Z,47.00
2017-05-06T00:34:44.900Z,45.13
2017-05-06T00:37:14.032Z,46.92
2017-05-06T00:39:43.079Z,46.42
2017-05-06T00:42:12.109Z,40.90
2017-05-06T00:44:41.154Z,43.58
2017-05-06T00:47:10.190Z,45.70
2017-05-06T00:49:39.238Z,44.37
2017-05-06T00:52:08.306Z,47.47
2017-05-06T00:54:38.105Z,44.62
2017-05-06T00:57:07.137Z,46.93
2017-05-06T00:59:36.181Z,46.73
2017-05-06T01:02:05.344Z,43.87
2017-05-06T01:04:34.394Z,41.95
2017-05-06T01:07:04.203Z,49.68
2017-05-06T01:09:33.248Z,54.12
2017-05-06T01:12:02.289Z,48.62
2017-05-06T01:14:32.118Z,49.58
2017-05-06T01:17:01.891Z,50.72
2017-05-06T01:19:30.934Z,54.43
2017-05-06T01:21:59.989Z,48.48
2017-05-06T01:24:29.022Z,53.25
2017-05-06T01:26:58.201Z,48.77
2017-05-06T01:29:27.998Z,50.40
2017-05-06T01:31:57.045Z,48.53
2017-05-06T01:34:26.076Z,50.42
2017-05-06T01:36:55.122Z,48.05
2017-05-06T01:39:24.157Z,50.37
2017-05-06T01:41:53.218Z,58.08
2017-05-06T01:44:22.247Z,47.23
2017-05-06T01:46:51.358Z,50.28
2017-05-06T01:49:21.199Z,51.22
2017-05-06T01:51:50.269Z,53.73
2017-05-06T01:54:20.070Z,51.70
2017-05-06T01:56:49.126Z,42.10
2017-05-06T01:59:18.161Z,46.00
2017-05-06T02:01:47.268Z,42.23
2017-05-06T02:04:17.054Z,45.33
2017-05-06T02:06:46.093Z,47.12
2017-05-06T02:09:15.145Z,48.17
2017-05-06T02:11:44.181Z,46.60
2017-05-06T02:14:13.361Z,43.33
2017-05-06T02:16:43.145Z,48.38
2017-05-06T02:19:12.273Z,42.22
2017-05-06T02:21:41.305Z,51.72
2017-05-06T02:24:10.366Z,51.43
2017-05-06T02:26:39.434Z,54.47
2017-05-06T02:29:08.494Z,51.68
2017-05-06T02:31:37.552Z,52.40
2017-05-06T02:34:06.605Z,53.05
2017-05-06T02:36:35.654Z,47.07
2017-05-06T02:39:04.689Z,47.27
2017-05-06T02:41:33.749Z,49.68
2017-05-06T02:44:02.893Z,52.05
2017-05-06T02:46:31.993Z,49.40
2017-05-06T02:49:01.020Z,58.90
2017-05-06T02:51:30.090Z,58.13
2017-05-06T02:53:59.921Z,51.72
2017-05-06T02:56:29.816Z,54.57
2017-05-06T02:58:59.605Z,54.28
2017-05-06T03:01:28.689Z,88.08
2017-05-06T03:03:57.723Z,57.45
2017-05-06T03:06:27.638Z,55.53
2017-05-06T03:08:56.653Z,55.37
2017-05-06T03:11:25.833Z,72.37
2017-05-06T03:13:55.616Z,79.85
2017-05-06T03:16:24.636Z,78.42
2017-05-06T03:18:53.693Z,49.97
2017-05-06T03:21:22.731Z,66.17
2017-05-06T03:23:51.784Z,56.58
2017-05-06T03:26:20.821Z,67.85
2017-05-06T03:28:49.904Z,61.52
2017-05-06T03:31:18.952Z,66.63
2017-05-06T03:33:48.046Z,44.00
2017-05-06T03:36:17.086Z,45.12
2017-05-06T03:38:46.992Z,57.73
2017-05-06T03:41:16.763Z,51.55
2017-05-06T03:43:45.813Z,41.50
2017-05-06T03:46:14.857Z,61.87
2017-05-06T03:48:43.906Z,42.50
2017-05-06T03:51:12.945Z,58.42
2017-05-06T03:53:42.021Z,43.55
2017-05-06T03:56:11.053Z,51.90
2017-05-06T03:58:40.101Z,79.43
2017-05-06T04:01:09.141Z,43.20
2017-05-06T04:03:38.209Z,42.45
2017-05-06T04:06:07.236Z,47.07
2017-05-06T04:08:37.050Z,44.78
2017-05-06T04:11:06.824Z,43.37
2017-05-06T04:13:35.901Z,40.97
2017-05-06T04:16:04.925Z,40.45
2017-05-06T04:18:33.965Z,36.95
2017-05-06T04:21:03.046Z,38.02
2017-05-06T04:23:32.058Z,37.50
2017-05-06T04:26:01.112Z,37.15
2017-05-06T04:28:30.147Z,35.78
2017-05-06T04:30:59.230Z,36.03
2017-05-06T04:33:29.001Z,33.48
2017-05-06T04:35:58.053Z,44.55
2017-05-06T04:38:27.094Z,41.73
2017-05-06T04:40:56.149Z,43.33
2017-05-06T04:43:25.201Z,48.32
2017-05-06T04:45:54.249Z,46.00
2017-05-06T04:48:23.296Z,52.58
2017-05-06T04:50:53.078Z,45.78
2017-05-06T04:53:22.110Z,48.55
2017-05-06T04:55:51.157Z,45.85
2017-05-06T04:58:20.193Z,53.58
2017-05-06T05:00:49.984Z,43.93
2017-05-06T05:03:19.027Z,54.82
2017-05-06T05:05:48.075Z,47.33
2017-05-06T05:08:17.110Z,41.97
2017-05-06T05:10:46.189Z,44.05
2017-05-06T05:13:15.237Z,45.43
2017-05-06T05:15:44.303Z,38.53
2017-05-06T05:18:13.336Z,42.28
2017-05-06T05:20:42.440Z,46.88
2017-05-06T05:23:12.240Z,48.40
2017-05-06T05:25:41.277Z,44.80
2017-05-06T05:28:11.332Z,43.10
2017-05-06T05:30:40.458Z,49.57
2017-05-06T05:33:09.521Z,46.62
2017-05-06T05:35:38.579Z,48.28
2017-05-06T05:38:07.629Z,40.22
2017-05-06T05:40:36.689Z,38.73
2017-05-06T05:43:05.722Z,31.97
2017-05-06T05:45:34.768Z,35.00
2017-05-06T05:48:03.813Z,37.63
2017-05-06T05:50:32.864Z,35.68
2017-05-06T05:53:01.921Z,36.72
2017-05-06T05:55:31.729Z,40.92
2017-05-06T05:58:01.508Z,38.15
2017-05-06T06:00:30.545Z,38.95
2017-05-06T06:02:59.612Z,33.68
2017-05-06T06:05:28.726Z,35.38
2017-05-06T06:07:58.505Z,31.72
2017-05-06T06:10:27.546Z,31.50
2017-05-06T06:12:56.593Z,41.55
2017-05-06T06:15:25.658Z,31.22
2017-05-06T06:17:54.689Z,31.90
2017-05-06T06:20:23.736Z,32.43
2017-05-06T06:22:52.799Z,32.42
2017-05-06T06:25:21.845Z,30.78
2017-05-06T06:27:50.882Z,26.15
2017-05-06T06:30:20.669Z,29.15
2017-05-06T06:32:49.697Z,25.70
2017-05-06T06:35:18.745Z,29.08
2017-05-06T06:37:47.779Z,27.12
2017-05-06T06:40:17.577Z,38.63
2017-05-06T06:42:46.609Z,29.23
2017-05-06T06:45:15.649Z,27.62
2017-05-06T06:47:45.449Z,27.08
2017-05-06T06:50:14.501Z,27.25
2017-05-06T06:52:43.529Z,26.98
2017-05-06T06:55:12.586Z,26.85
2017-05-06T06:57:41.618Z,25.20
2017-05-06T07:00:10.676Z,28.90
2017-05-06T07:02:39.738Z,25.55
2017-05-06T07:05:09.537Z,30.88
2017-05-06T07:07:38.603Z,24.23
2017-05-06T07:10:07.662Z,28.13
2017-05-06T07:12:36.780Z,25.57
2017-05-06T07:15:06.245Z,25.93
2017-05-06T07:17:36.047Z,22.57
2017-05-06T07:20:05.854Z,24.68
2017-05-06T07:22:34.990Z,21.60
2017-05-06T07:25:04.052Z,23.32
2017-05-06T07:27:33.868Z,19.02
2017-05-06T07:30:03.674Z,20.38
2017-05-06T07:32:33.478Z,21.78
2017-05-06T07:35:02.532Z,18.97
2017-05-06T07:37:31.595Z,21.67
2017-05-06T07:40:00.800Z,18.45
2017-05-06T07:42:29.858Z,19.13
2017-05-06T07:44:58.907Z,20.53
2017-05-06T07:47:27.966Z,17.68
2017-05-06T07:49:57.027Z,20.05
2017-05-06T07:52:26.095Z,20.57
2017-05-06T07:54:55.220Z,17.60
2017-05-06T07:57:24.305Z,17.02
2017-05-06T07:59:53.391Z,24.06
2017-05-06T08:02:22.444Z,15.26
2017-05-06T08:04:51.534Z,17.50
2017-05-06T08:07:20.578Z,14.82
2017-05-06T08:09:49.840Z,17.56
2017-05-06T08:12:18.893Z,16.08
2017-05-06T08:14:48.020Z,18.94
2017-05-06T08:17:17.043Z,19.08
2017-05-06T08:19:46.103Z,15.48
2017-05-06T08:22:15.205Z,14.66
2017-05-06T08:24:44.267Z,15.70
2017-05-06T08:27:13.385Z,16.80
2017-05-06T08:29:42.434Z,17.18
2017-05-06T08:32:11.475Z,15.00
2017-05-06T08:34:41.331Z,15.16
2017-05-06T08:37:10.388Z,17.26
2017-05-06T08:39:40.177Z,16.58
2017-05-06T08:42:09.227Z,14.22
2017-05-06T08:44:38.297Z,15.16
2017-05-06T08:47:07.357Z,17.40
2017-05-06T08:49:36.405Z,14.42
2017-05-06T08:52:05.462Z,16.98
2017-05-06T08:54:35.245Z,17.86
2017-05-06T08:57:04.321Z,15.60
2017-05-06T08:59:33.368Z,14.88
2017-05-06T09:02:03.159Z,18.60
2017-05-06T09:04:32.217Z,16.36
2017-05-06T09:07:01.296Z,15.42
2017-05-06T09:09:30.349Z,18.84
2017-05-06T09:11:59.421Z,14.92
2017-05-06T09:14:28.634Z,18.38
2017-05-06T09:16:57.672Z,15.28
2017-05-06T09:19:26.730Z,15.46
2017-05-06T09:21:56.513Z,20.58
2017-05-06T09:24:25.582Z,15.14
2017-05-06T09:26:54.689Z,19.82
2017-05-06T09:29:23.748Z,25.72
2017-05-06T09:31:52.805Z,30.94
2017-05-06T09:34:21.887Z,18.86
2017-05-06T09:36:50.917Z,17.02
2017-05-06T09:39:20.721Z,15.56
2017-05-06T09:41:50.540Z,19.34
2017-05-06T09:44:20.342Z,13.84
2017-05-06T09:46:49.374Z,17.54
2017-05-06T09:49:18.425Z,12.98
2017-05-06T09:51:47.485Z,15.00
2017-05-06T09:54:16.635Z,13.48
2017-05-06T09:56:46.425Z,13.82
2017-05-06T09:59:15.539Z,13.20
2017-05-06T10:01:44.577Z,14.14
2017-05-06T10:04:13.629Z,15.06
2017-05-06T10:06:43.425Z,14.46
2017-05-06T10:09:12.462Z,14.90
2017-05-06T10:11:41.573Z,13.80
2017-05-06T10:14:10.646Z,13.72
2017-05-06T10:16:39.712Z,13.54
2017-05-06T10:19:08.760Z,12.92
2017-05-06T10:21:37.829Z,14.02
2017-05-06T10:24:06.869Z,13.08
2017-05-06T10:26:36.693Z,13.58
2017-05-06T10:29:05.737Z,13.96
2017-05-06T10:31:34.785Z,17.94
2017-05-06T10:34:04.592Z,17.24
2017-05-06T10:36:33.636Z,12.76
2017-05-06T10:39:02.702Z,14.78
2017-05-06T10:41:32.481Z,13.58
2017-05-06T10:44:01.625Z,11.64
2017-05-06T10:46:30.701Z,17.16
2017-05-06T10:48:59.765Z,17.20
2017-05-06T10:51:28.819Z,13.68
2017-05-06T10:53:57.863Z,15.08
2017-05-06T10:56:26.924Z,15.58
2017-05-06T10:58:55.985Z,22.94
2017-05-06T11:01:25.017Z,14.00
2017-05-06T11:03:54.085Z,18.68
2017-05-06T11:06:23.154Z,35.52
2017-05-06T11:08:52.262Z,12.44
2017-05-06T11:11:21.346Z,12.84
2017-05-06T11:13:50.379Z,21.20
2017-05-06T11:16:19.433Z,22.88
2017-05-06T11:18:49.225Z,22.92
2017-05-06T11:21:18.731Z,14.76
2017-05-06T11:23:47.772Z,14.20
2017-05-06T11:26:16.842Z,31.74
2017-05-06T11:28:45.896Z,23.14
2017-05-06T11:31:14.954Z,16.88
2017-05-06T11:33:43.978Z,15.54
2017-05-06T11:36:13.042Z,14.78
2017-05-06T11:38:42.077Z,13.50
2017-05-06T11:41:11.130Z,15.02
2017-05-06T11:43:40.165Z,15.40
2017-05-06T11:46:09.247Z,13.12
2017-05-06T11:48:38.309Z,11.68
2017-05-06T11:51:07.349Z,10.94
2017-05-06T11:53:36.394Z,12.04
2017-05-06T11:56:05.460Z,14.58
2017-05-06T11:58:35.226Z,13.62
2017-05-06T12:01:04.273Z,15.14
2017-05-06T12:03:34.088Z,14.90
2017-05-06T12:06:03.864Z,14.28
2017-05-06T12:08:32.931Z,14.06
2017-05-06T12:11:01.965Z,14.24
2017-05-06T12:13:31.009Z,14.72
2017-05-06T12:16:00.058Z,14.48
2017-05-06T12:18:29.854Z,13.18
2017-05-06T12:20:58.891Z,14.94
2017-05-06T12:23:27.941Z,14.36
2017-05-06T12:25:56.978Z,13.90
2017-05-06T12:28:26.058Z,13.76
2017-05-06T12:30:55.835Z,15.34
2017-05-06T12:33:24.887Z,13.62
2017-05-06T12:35:53.921Z,13.18
2017-05-06T12:38:23.015Z,13.32
2017-05-06T12:40:52.084Z,15.22
2017-05-06T12:43:21.174Z,14.46
2017-05-06T12:45:50.216Z,14.46
2017-05-06T12:48:19.262Z,13.98
2017-05-06T12:50:48.304Z,14.44
2017-05-06T12:53:17.353Z,12.40
2017-05-06T12:55:46.406Z,12.68
2017-05-06T12:58:16.213Z,13.50
2017-05-06T13:00:45.989Z,16.04
2017-05-06T13:03:15.034Z,13.92
2017-05-06T13:05:44.101Z,15.32
2017-05-06T13:08:13.154Z,15.32
2017-05-06T13:10:42.201Z,14.32
2017-05-06T13:13:11.979Z,14.84
2017-05-06T13:15:41.049Z,13.80
2017-05-06T13:18:10.147Z,13.32
2017-05-06T13:20:39.210Z,15.06
2017-05-06T13:23:08.989Z,18.90
2017-05-06T13:25:38.048Z,15.28
2017-05-06T13:28:07.133Z,27.90
2017-05-06T13:30:36.194Z,41.02
2017-05-06T13:33:05.981Z,14.02
2017-05-06T13:35:35.049Z,13.04
2017-05-06T13:38:04.094Z,18.74
2017-05-06T13:40:33.893Z,17.52
2017-05-06T13:43:02.941Z,16.72
2017-05-06T13:45:32.010Z,16.82
2017-05-06T13:48:01.075Z,19.84
2017-05-06T13:50:30.120Z,14.76
2017-05-06T13:52:59.216Z,19.48
2017-05-06T13:55:28.375Z,24.26
2017-05-06T13:57:57.425Z,19.58
2017-05-06T14:00:26.605Z,17.98
2017-05-06T14:02:55.972Z,15.20
2017-05-06T14:05:24.993Z,15.04
2017-05-06T14:07:54.081Z,16.40
2017-05-06T14:10:23.126Z,23.28
2017-05-06T14:12:52.182Z,17.80
2017-05-06T14:15:21.237Z,15.12
2017-05-06T14:17:51.046Z,15.46
2017-05-06T14:20:20.814Z,23.76
2017-05-06T14:22:49.878Z,15.98
2017-05-06T14:25:18.931Z,16.76
2017-05-06T14:27:47.969Z,16.98
2017-05-06T14:30:17.021Z,20.94
2017-05-06T14:32:46.994Z,20.12
2017-05-06T14:35:16.049Z,17.80
2017-05-06T14:37:45.837Z,24.44
2017-05-06T14:40:14.904Z,15.98
2017-05-06T14:42:43.970Z,16.68
2017-05-06T14:45:13.053Z,15.54
2017-05-06T14:47:42.840Z,15.90
2017-05-06T14:50:11.888Z,14.76
2017-05-06T14:52:40.961Z,23.60
2017-05-06T14:55:10.722Z,15.38
2017-05-06T14:57:39.792Z,21.88
2017-05-06T15:00:08.828Z,16.50
2017-05-06T15:02:38.609Z,19.08
2017-05-06T15:05:07.690Z,16.20
2017-05-06T15:07:36.741Z,15.56
2017-05-06T15:10:06.543Z,17.50
2017-05-06T15:12:36.336Z,19.86
2017-05-06T15:15:05.398Z,14.00
2017-05-06T15:17:34.454Z,14.84
2017-05-06T15:20:04.237Z,21.92
2017-05-06T15:22:33.276Z,19.12
2017-05-06T15:25:02.325Z,15.44
2017-05-06T15:27:31.366Z,16.34
2017-05-06T15:30:00.420Z,16.08
2017-05-06T15:32:29.469Z,17.70
2017-05-06T15:34:58.547Z,14.54
2017-05-06T15:37:27.590Z,13.32
2017-05-06T15:39:56.697Z,15.84
2017-05-06T15:42:25.723Z,15.54
2017-05-06T15:44:54.782Z,15.46
2017-05-06T15:47:23.834Z,16.96
2017-05-06T15:49:52.929Z,15.48
2017-05-06T15:52:21.976Z,15.88
2017-05-06T15:54:51.768Z,15.44
2017-05-06T15:57:20.820Z,13.58
2017-05-06T15:59:49.873Z,13.44
2017-05-06T16:02:19.698Z,13.70
2017-05-06T16:04:49.508Z,13.54
2017-05-06T16:07:19.322Z,17.04
2017-05-06T16:09:49.095Z,14.08
2017-05-06T16:12:18.173Z,13.28
2017-05-06T16:14:47.222Z,16.30
2017-05-06T16:17:17.029Z,15.48
2017-05-06T16:19:46.840Z,14.26
2017-05-06T16:22:15.888Z,12.70
2017-05-06T16:24:44.953Z,15.08
2017-05-06T16:27:14.016Z,16.22
2017-05-06T16:29:43.809Z,15.66
2017-05-06T16:32:12.885Z,14.06
2017-05-06T16:34:41.914Z,12.88
2017-05-06T16:37:10.970Z,15.80
2017-05-06T16:39:40.023Z,16.26
2017-05-06T16:42:09.808Z,14.48
2017-05-06T16:44:38.877Z,14.88
2017-05-06T16:47:07.935Z,13.38
2017-05-06T16:49:36.970Z,14.36
2017-05-06T16:52:06.094Z,14.62
2017-05-06T16:54:35.907Z,18.40
2017-05-06T16:57:05.728Z,14.68
2017-05-06T16:59:35.536Z,16.58
2017-05-06T17:02:05.420Z,13.92
2017-05-06T17:04:34.473Z,13.80
2017-05-06T17:07:03.581Z,15.48
2017-05-06T17:09:32.644Z,13.82
2017-05-06T17:12:02.550Z,15.88
2017-05-06T17:14:32.353Z,16.46
2017-05-06T17:17:02.145Z,13.82
2017-05-06T17:19:31.213Z,14.22
2017-05-06T17:22:00.250Z,14.12
2017-05-06T17:24:30.058Z,16.00
2017-05-06T17:26:59.097Z,14.96
2017-05-06T17:29:28.247Z,16.00
2017-05-06T17:31:57.310Z,13.88
2017-05-06T17:34:26.423Z,14.12
2017-05-06T17:36:55.454Z,17.22
2017-05-06T17:39:24.521Z,15.20
2017-05-06T17:41:53.558Z,13.76
2017-05-06T17:44:22.733Z,12.66
2017-05-06T17:46:51.768Z,14.62
2017-05-06T17:49:20.824Z,15.24
2017-05-06T17:51:50.595Z,14.18
2017-05-06T17:54:19.653Z,12.92
2017-05-06T17:56:48.702Z,13.08
2017-05-06T17:59:17.774Z,17.54
2017-05-06T18:01:46.822Z,13.50
2017-05-06T18:04:15.857Z,13.80
2017-05-06T18:06:44.925Z,16.00
2017-05-06T18:09:14.000Z,15.40
2017-05-06T18:11:43.793Z,14.38
2017-05-06T18:14:12.906Z,14.94
2017-05-06T18:16:42.796Z,14.10
2017-05-06T18:19:12.633Z,15.86
2017-05-06T18:21:42.424Z,12.90
2017-05-06T18:24:12.212Z,13.40
2017-05-06T18:26:41.279Z,13.58
2017-05-06T18:29:10.319Z,14.40
2017-05-06T18:31:39.382Z,16.14
2017-05-06T18:34:08.436Z,13.98
2017-05-06T18:36:37.512Z,13.94
2017-05-06T18:39:07.309Z,13.46
2017-05-06T18:41:36.362Z,13.32
2017-05-06T18:44:05.519Z,13.72
2017-05-06T18:46:34.727Z,13.66
2017-05-06T18:49:04.542Z,12.92
2017-05-06T18:51:33.600Z,13.54
2017-05-06T18:54:02.646Z,12.94
2017-05-06T18:56:31.722Z,13.42
2017-05-06T18:59:00.774Z,19.36
2017-05-06T19:01:29.837Z,15.88
2017-05-06T19:03:58.886Z,13.88
2017-05-06T19:06:28.681Z,15.06
2017-05-06T19:08:58.044Z,18.02
2017-05-06T19:11:27.100Z,15.36
2017-05-06T19:13:56.897Z,13.94
2017-05-06T19:16:26.702Z,14.16
2017-05-06T19:18:55.749Z,15.20
2017-05-06T19:21:24.810Z,17.94
2017-05-06T19:23:54.600Z,17.22
2017-05-06T19:26:23.665Z,14.32
2017-05-06T19:28:52.725Z,24.46
2017-05-06T19:31:22.510Z,15.24
2017-05-06T19:33:51.626Z,13.00
2017-05-06T19:36:21.524Z,16.22
2017-05-06T19:38:50.564Z,19.78
2017-05-06T19:41:19.637Z,19.60
2017-05-06T19:43:48.719Z,15.88
2017-05-06T19:46:18.511Z,14.72
2017-05-06T19:48:47.570Z,16.66
2017-05-06T19:51:16.649Z,18.46
2017-05-06T19:53:45.688Z,16.46
2017-05-06T19:56:14.854Z,17.96
2017-05-06T19:58:43.918Z,17.46
2017-05-06T20:01:12.998Z,16.52
2017-05-06T20:03:42.831Z,16.72
2017-05-06T20:06:11.882Z,20.62
2017-05-06T20:08:41.005Z,20.18
2017-05-06T20:11:10.054Z,18.82
2017-05-06T20:13:39.097Z,15.60
2017-05-06T20:16:08.355Z,19.00
2017-05-06T20:18:37.415Z,17.56
2017-05-06T20:21:06.450Z,19.04
2017-05-06T20:23:35.544Z,17.78
2017-05-06T20:26:04.645Z,18.98
2017-05-06T20:28:33.861Z,16.46
2017-05-06T20:31:03.784Z,16.62
2017-05-06T20:33:32.850Z,22.42
2017-05-06T20:36:01.910Z,20.48
2017-05-06T20:38:30.983Z,22.38
2017-05-06T20:41:00.225Z,21.60
2017-05-06T20:43:29.269Z,21.78
2017-05-06T20:45:58.365Z,22.48
2017-05-06T20:48:27.428Z,25.00
2017-05-06T20:50:56.477Z,25.04
2017-05-06T20:53:25.546Z,19.98
2017-05-06T20:55:54.609Z,29.40
2017-05-06T20:58:23.657Z,23.60
2017-05-06T21:00:52.710Z,22.00
2017-05-06T21:03:22.505Z,23.86
2017-05-06T21:05:52.308Z,22.06
2017-05-06T21:08:21.397Z,26.30
2017-05-06T21:10:50.437Z,22.88
2017-05-06T21:13:19.572Z,23.68
2017-05-06T21:15:48.626Z,24.82
2017-05-06T21:18:17.693Z,23.00
2017-05-06T21:20:47.490Z,24.24
2017-05-06T21:23:16.543Z,24.02
2017-05-06T21:25:45.585Z,24.46
2017-05-06T21:28:16.285Z,24.18
2017-05-06T21:30:45.321Z,28.66
2017-05-06T21:33:15.120Z,25.04
2017-05-06T21:35:44.167Z,28.80
2017-05-06T21:38:13.235Z,26.12
2017-05-06T21:40:43.012Z,27.12
2017-05-06T21:43:12.109Z,25.94
2017-05-06T21:45:41.151Z,26.20
2017-05-06T21:48:10.189Z,25.54
2017-05-06T21:50:39.265Z,27.18
2017-05-06T21:53:08.306Z,27.78
2017-05-06T21:55:38.141Z,28.06
2017-05-06T21:58:07.233Z,26.58
2017-05-06T22:00:37.009Z,24.80
2017-05-06T22:03:06.058Z,26.28
2017-05-06T22:05:35.122Z,26.46
2017-05-06T22:08:04.897Z,25.12
2017-05-06T22:10:33.945Z,27.66
2017-05-06T22:13:02.986Z,25.38
2017-05-06T22:15:32.072Z,25.12
2017-05-06T22:18:01.216Z,25.28
2017-05-06T22:20:30.286Z,29.52
2017-05-06T22:22:59.361Z,26.00
2017-05-06T22:25:28.398Z,30.14
2017-05-06T22:27:57.491Z,26.54
2017-05-06T22:30:27.275Z,29.60
2017-05-06T22:32:56.341Z,29.32
2017-05-06T22:35:25.385Z,31.70
2017-05-06T22:37:55.178Z,27.16
2017-05-06T22:40:24.273Z,29.06
2017-05-06T22:42:54.076Z,26.72
2017-05-06T22:45:23.118Z,27.62
2017-05-06T22:47:52.229Z,29.78
2017-05-06T22:50:21.262Z,28.34
2017-05-06T22:52:50.321Z,27.50
2017-05-06T22:55:19.365Z,29.28
2017-05-06T22:57:49.178Z,27.16
2017-05-06T23:00:18.971Z,28.52
2017-05-06T23:02:48.025Z,29.40
2017-05-06T23:05:17.088Z,29.76
2017-05-06T23:07:46.932Z,30.40
2017-05-06T23:10:16.023Z,30.22
2017-05-06T23:12:45.058Z,28.90
2017-05-06T23:15:14.124Z,29.38
2017-05-06T23:17:43.166Z,30.68
2017-05-06T23:20:12.977Z,31.54
2017-05-06T23:22:42.011Z,30.44
2017-05-06T23:25:11.084Z,33.68
2017-05-06T23:27:40.862Z,35.54
2017-05-06T23:30:09.945Z,33.40
2017-05-06T23:32:39.050Z,33.78
2017-05-06T23:35:08.119Z,33.32
2017-05-06T23:37:37.153Z,31.34
2017-05-06T23:40:06.225Z,35.54
2017-05-06T23:42:35.324Z,37.18
2017-05-06T23:45:04.374Z,35.08
2017-05-06T23:47:33.433Z,38.26
2017-05-06T23:50:03.229Z,35.54
2017-05-06T23:52:32.285Z,35.38
2017-05-06T23:55:01.330Z,34.88
2017-05-06T23:57:31.225Z,35.98
